Petersburg James A Johnson Airport Petersburg US
ICAO: PAPG
IATA:
Category: Medium
Scheduled Services:

Elevation: 111 ft
TransAlt. 18000 ft.

Airport Communications:
AWOS 3:125.8
ANCHORAGE CNTR:118
CTAF:122.5
SITKA RDO:122.35

PAPG Zoom In..

Runways:

(A) RW 05 length 6400 ft width 150 ft
---- / hdg 50

(B) RW 23 length 6400 ft width 150 ft
---- / hdg 230

Location; PAPG
Day. 20 / Time. 16.56 Zulu
* Altimeter: 29.89
* Temperature: 11° c. 51.8°f.
* Wind from: 280° Speed 06 kn.
Dewpoint: 09° c.
Visibility: 10 Statute Miles.
Clouds: Few 800 ft.
Clouds: Scattered 3600 ft.
Clouds: Broken 5500 ft.

PAPG 201656Z 28006KT 10SM FEW008 SCT036 BKN055 11/09 A2989 RMK AO2 SLP125 T01110089


Wind From 280°
Speed 06 kn.

 
 
jpsmedia.com for Web Design SOUNDCLOUD worldairports.se 2018   terms of use